Weather at Landespolizeikommando Kärnten Heliport

Public forecast

Using degrees Celsius for public forecast. Weather courtesy of forecast.io.

Closest aviation weather report (METAR) to Landespolizeikommando Kärnten Heliport

Closest report is Klagenfurt Airport, 1.8 nm (3.4 km) NE.

2024/05/21 12:50 (retrieved 23 minutes ago)

LOWK 211250Z AUTO VRB02KT 5000 RA FEW012 BKN034 17/14 Q1007 RESHRA TEMPO 2500 +SHRA BKN012

Closest aviation forecast (TAF) to Landespolizeikommando Kärnten Heliport

Closest forecast is Klagenfurt Airport, 1.8 nm (3.4 km) NE.

2024/05/21 12:21 (retrieved 52 minutes ago)

TAF LOWK 211115Z 2112/2212 VRB04KT 9999 FEW012 BKN020 TX19/2211Z TN13/2203Z TEMPO 2112/2116 11015G25KT 2000 +TSRA BKN008 FEW020CB TEMPO 2116/2206 SHRA BKN014 FEW020CB PROB40 TEMPO 2200/2204 4000 TSRA BKN012 FEW020CB TEMPO 2209/2212 SHRA